Time;durP1;ratioP1;P1;durP2;ratioP2;P2;SDS_P1;SDS_P2;PMS_P1;PMS_P2;Temp;Humidity;BMP_temperature;BMP_pressure;BME280_temperature;BME280_humidity;BME280_pressure;Samples;Min_cycle;Max_cycle;Signal;HPM_P1;HPM_P2
2022/10/25 00:01:34;;;;;;;0.10;0.10;;;;;;;13.18;100.00;99983.28;5070656;28;20174;-74
2022/10/25 00:03:59;;;;;;;0.10;0.10;;;;;;;13.21;100.00;99984.53;5070751;28;20202;-74
2022/10/25 00:06:25;;;;;;;0.17;0.10;;;;;;;13.21;100.00;99984.53;5052169;28;20625;-74
2022/10/25 00:08:50;;;;;;;0.37;0.37;;;;;;;13.18;100.00;99983.28;5070746;28;20170;-75
2022/10/25 00:11:22;;;;;;;0.27;0.27;;;;;;;13.21;100.00;99976.31;5070564;28;20170;-74
2022/10/25 00:13:49;;;;;;;7.83;0.57;;;;;;;13.17;100.00;99986.31;5052577;28;20187;-73
2022/10/25 00:16:17;;;;;;;4.27;0.63;;;;;;;13.11;100.00;99986.53;5070444;28;20175;-74
2022/10/25 00:18:43;;;;;;;0.77;0.43;;;;;;;13.01;100.00;99978.72;5070811;28;20202;-73
2022/10/25 00:21:08;;;;;;;0.20;0.20;;;;;;;12.92;100.00;99978.03;5070498;28;20622;-73
2022/10/25 00:23:33;;;;;;;0.00;0.00;;;;;;;12.89;100.00;99966.94;5070510;28;20201;-73
2022/10/25 00:26:00;;;;;;;0.00;0.00;;;;;;;12.88;100.00;99966.16;5071273;28;20178;-74
2022/10/25 00:28:25;;;;;;;0.00;0.00;;;;;;;12.82;100.00;99972.97;5075925;28;20634;-73
2022/10/25 00:30:59;;;;;;;3.63;0.77;;;;;;;12.81;100.00;99963.13;5081349;28;20181;-73
2022/10/25 00:33:24;;;;;;;0.00;0.00;;;;;;;12.79;100.00;99968.97;5081753;28;20189;-73
2022/10/25 00:35:49;;;;;;;0.00;0.00;;;;;;;12.75;100.00;99967.25;5075085;28;20646;-73
2022/10/25 00:38:14;;;;;;;0.00;0.00;;;;;;;12.80;100.00;99972.50;5075035;28;20178;-73
2022/10/25 00:40:40;;;;;;;9.03;0.73;;;;;;;12.86;100.00;99973.88;5074413;28;20703;-73
2022/10/25 00:43:08;;;;;;;0.00;0.00;;;;;;;12.92;100.00;99969.00;5074508;28;20162;-73
2022/10/25 00:45:34;;;;;;;0.00;0.00;;;;;;;12.85;100.00;99969.53;5074403;28;20172;-73
2022/10/25 00:48:08;;;;;;;0.00;0.00;;;;;;;12.81;100.00;99969.41;5074148;28;20645;-74
2022/10/25 00:50:50;;;;;;;0.00;0.00;;;;;;;12.85;100.00;99975.03;5074079;28;20177;-73
2022/10/25 00:53:23;;;;;;;0.00;0.00;;;;;;;12.89;100.00;99980.66;5074060;28;20186;-74
2022/10/25 00:56:11;;;;;;;0.00;0.00;;;;;;;12.96;100.00;99989.13;5074257;28;20206;-73
2022/10/25 00:58:38;;;;;;;0.00;0.00;;;;;;;13.00;100.00;99990.84;5073907;28;20186;-73
2022/10/25 01:01:07;;;;;;;0.07;0.00;;;;;;;13.05;100.00;99990.63;5073782;28;20167;-74
2022/10/25 01:03:35;;;;;;;0.00;0.00;;;;;;;13.08;100.00;99998.19;5073938;28;20198;-73
2022/10/25 01:06:04;;;;;;;0.20;0.20;;;;;;;13.05;100.00;100001.59;5073748;28;20171;-73
2022/10/25 01:08:30;;;;;;;0.20;0.20;;;;;;;12.99;100.00;99993.91;5073848;28;20262;-73
2022/10/25 01:10:55;;;;;;;0.87;0.87;;;;;;;12.95;100.00;99996.53;5073750;28;20592;-72
2022/10/25 01:13:21;;;;;;;0.10;0.10;;;;;;;12.90;100.00;99998.72;5055833;28;20202;-72
2022/10/25 01:15:52;;;;;;;7.43;0.30;;;;;;;12.86;100.00;100003.25;5073644;28;20175;-74
2022/10/25 01:18:31;;;;;;;0.40;0.40;;;;;;;12.85;100.00;100001.63;5073558;28;20166;-73
2022/10/25 01:21:11;;;;;;;0.00;0.00;;;;;;;12.81;100.00;100001.53;5073872;28;20171;-73
2022/10/25 01:23:42;;;;;;;0.20;0.20;;;;;;;12.87;100.00;100005.63;5073780;28;20220;-74
2022/10/25 01:26:26;;;;;;;3.70;0.40;;;;;;;12.87;100.00;100000.16;5073693;28;20178;-72
2022/10/25 01:29:06;;;;;;;0.30;0.30;;;;;;;12.91;100.00;100003.84;5073372;28;20528;-73
2022/10/25 01:31:57;;;;;;;0.10;0.10;;;;;;;12.96;100.00;100008.31;5073414;28;20698;-74
2022/10/25 01:34:32;;;;;;;0.93;0.83;;;;;;;12.96;100.00;100005.56;5055515;28;20259;-73
2022/10/25 01:37:12;;;;;;;0.13;0.10;;;;;;;12.97;100.00;100004.44;5073299;28;20517;-74
2022/10/25 01:39:47;;;;;;;0.27;0.27;;;;;;;13.00;100.00;100001.81;5073429;28;20166;-73
2022/10/25 01:42:39;;;;;;;0.00;0.00;;;;;;;13.03;100.00;100001.16;5073112;28;20500;-73
2022/10/25 01:45:07;;;;;;;0.00;0.00;;;;;;;13.02;100.00;100005.03;5072130;28;20214;-74
2022/10/25 01:47:40;;;;;;;0.93;0.93;;;;;;;13.00;100.00;100001.81;5054945;28;20183;-74
2022/10/25 01:50:11;;;;;;;0.07;0.07;;;;;;;12.99;100.00;99997.47;5073033;28;20210;-73
2022/10/25 01:52:37;;;;;;;0.10;0.10;;;;;;;12.97;100.00;99996.19;5073031;28;20181;-74
2022/10/25 01:55:07;;;;;;;0.10;0.10;;;;;;;12.96;100.00;100002.81;5072865;28;20182;-73
2022/10/25 01:58:06;;;;;;;0.40;0.40;;;;;;;12.96;100.00;99994.59;5054717;28;20285;-73
2022/10/25 02:00:40;;;;;;;0.00;0.00;;;;;;;12.91;100.00;100001.09;5054799;28;20182;-73
2022/10/25 02:03:20;;;;;;;0.00;0.00;;;;;;;12.88;100.00;100001.78;5072754;28;20195;-73
2022/10/25 02:06:13;;;;;;;0.00;0.00;;;;;;;12.88;100.00;100012.75;5072488;28;20171;-74
2022/10/25 02:08:56;;;;;;;0.20;0.03;;;;;;;12.83;100.00;100001.97;5072728;28;20257;-74
2022/10/25 02:11:31;;;;;;;0.00;0.00;;;;;;;12.78;100.00;100007.69;5072694;28;20236;-73
2022/10/25 02:14:11;;;;;;;0.73;0.73;;;;;;;12.76;100.00;100001.75;5072626;28;20241;-74
2022/10/25 02:16:43;;;;;;;0.20;0.20;;;;;;;12.74;100.00;100002.06;5072640;28;20177;-75
2022/10/25 02:19:14;;;;;;;0.00;0.00;;;;;;;12.75;100.00;100002.88;5072464;28;20263;-74
2022/10/25 02:21:41;;;;;;;0.37;0.37;;;;;;;12.74;100.00;100001.28;5072282;28;20279;-74
2022/10/25 02:24:18;;;;;;;0.67;0.67;;;;;;;12.75;100.00;100002.88;5072304;28;20661;-74
2022/10/25 02:26:46;;;;;;;0.03;0.03;;;;;;;12.75;100.00;99995.47;5072465;28;20174;-73
2022/10/25 02:29:13;;;;;;;0.90;0.77;;;;;;;12.76;100.00;100008.03;5072185;28;20170;-74
2022/10/25 02:31:39;;;;;;;0.00;0.00;;;;;;;12.75;100.00;100008.34;5072073;28;20210;-75
2022/10/25 02:34:04;;;;;;;0.00;0.00;;;;;;;12.80;100.00;100000.72;5054156;28;20210;-74
2022/10/25 02:36:30;;;;;;;0.00;0.00;;;;;;;12.80;100.00;99995.22;5054113;28;20268;-74
2022/10/25 02:38:56;;;;;;;0.00;0.00;;;;;;;12.88;100.00;100001.00;5072066;28;20175;-75
2022/10/25 02:41:23;;;;;;;0.10;0.10;;;;;;;12.91;100.00;99994.81;5072193;28;20178;-75
2022/10/25 02:43:48;;;;;;;0.00;0.00;;;;;;;12.89;100.00;99986.94;5071835;28;20210;-75
2022/10/25 02:46:17;;;;;;;0.00;0.00;;;;;;;12.94;100.00;99999.63;5071881;28;20233;-74
2022/10/25 02:48:42;;;;;;;0.00;0.00;;;;;;;12.91;100.00;99998.38;5071940;28;20250;-76
2022/10/25 02:51:10;;;;;;;0.00;0.00;;;;;;;12.98;100.00;99995.84;5071032;28;20266;-73
2022/10/25 02:53:35;;;;;;;0.00;0.00;;;;;;;13.01;100.00;99989.69;5071735;28;20171;-74
2022/10/25 02:56:04;;;;;;;0.10;0.10;;;;;;;13.01;100.00;99984.22;5071493;28;20174;-74
2022/10/25 02:58:31;;;;;;;0.00;0.00;;;;;;;13.07;100.00;99995.78;5071661;28;20698;-73
2022/10/25 03:00:58;;;;;;;0.00;0.00;;;;;;;13.06;100.00;99992.25;5071520;28;20174;-73
2022/10/25 03:03:24;;;;;;;0.10;0.00;;;;;;;13.05;100.00;99998.88;5071503;28;20198;-75
2022/10/25 03:05:49;;;;;;;0.10;0.10;;;;;;;13.04;100.00;100001.94;5071171;28;20186;-74
2022/10/25 03:08:15;;;;;;;1.03;0.40;;;;;;;12.99;100.00;99999.41;5071462;28;20195;-74
2022/10/25 03:10:40;;;;;;;0.07;0.00;;;;;;;12.98;100.00;99998.59;5071374;28;20178;-75
2022/10/25 03:13:05;;;;;;;1.07;0.60;;;;;;;12.97;100.00;100001.69;5071263;28;20171;-73
2022/10/25 03:15:31;;;;;;;1.73;1.00;;;;;;;12.95;100.00;100002.03;5071372;28;20587;-74
2022/10/25 03:17:56;;;;;;;1.90;1.80;;;;;;;12.93;100.00;100007.06;5071160;28;20171;-74
2022/10/25 03:20:21;;;;;;;0.40;0.40;;;;;;;12.91;100.00;100014.81;5053262;28;20174;-73
2022/10/25 03:22:47;;;;;;;0.50;0.50;;;;;;;12.92;100.00;100018.34;5071263;28;20665;-74
2022/10/25 03:25:12;;;;;;;2.97;0.93;;;;;;;12.90;100.00;100012.41;5071080;28;20249;-75
2022/10/25 03:27:37;;;;;;;4.90;1.47;;;;;;;12.91;100.00;100003.03;5070823;28;20522;-75
2022/10/25 03:30:03;;;;;;;0.20;0.20;;;;;;;12.91;100.00;100014.00;5071180;28;20528;-74
2022/10/25 03:32:28;;;;;;;0.10;0.10;;;;;;;12.91;100.00;100030.47;5071070;28;20222;-75
2022/10/25 03:34:53;;;;;;;0.30;0.30;;;;;;;12.93;100.00;100025.44;5071120;28;20251;-75
2022/10/25 03:37:19;;;;;;;0.20;0.20;;;;;;;12.93;100.00;100020.75;5070626;28;20170;-74
2022/10/25 03:39:44;;;;;;;0.27;0.27;;;;;;;12.95;100.00;100023.16;5071246;28;20472;-75
2022/10/25 03:42:09;;;;;;;0.40;0.40;;;;;;;12.95;100.00;100021.22;5070748;28;20182;-74
2022/10/25 03:44:35;;;;;;;0.30;0.20;;;;;;;12.97;100.00;100023.63;5070979;28;20218;-73
2022/10/25 03:47:00;;;;;;;0.30;0.30;;;;;;;12.98;100.00;100027.97;5070458;28;20174;-74
2022/10/25 03:49:25;;;;;;;0.23;0.23;;;;;;;12.99;100.00;100032.31;5052765;28;20182;-73
2022/10/25 03:51:50;;;;;;;0.30;0.30;;;;;;;13.01;100.00;100035.50;5052766;28;20174;-75
2022/10/25 03:54:16;;;;;;;6.23;0.77;;;;;;;13.01;100.00;100036.31;5071115;28;20765;-74
2022/10/25 03:56:41;;;;;;;2.33;1.30;;;;;;;13.02;100.00;100034.41;5070886;28;20175;-75
2022/10/25 03:59:06;;;;;;;2.53;0.67;;;;;;;13.05;100.00;100040.00;5074262;28;20547;-75
2022/10/25 04:01:32;;;;;;;0.60;0.60;;;;;;;13.04;100.00;100038.41;5071138;28;20198;-74
2022/10/25 04:03:57;;;;;;;0.20;0.20;;;;;;;13.04;100.00;100043.88;5070809;28;20506;-74
2022/10/25 04:06:22;;;;;;;0.20;0.20;;;;;;;13.06;100.00;100036.13;5070471;28;20171;-75
2022/10/25 04:08:48;;;;;;;5.30;0.77;;;;;;;13.05;100.00;100040.00;5052539;28;20182;-74
2022/10/25 04:11:13;;;;;;;4.30;1.73;;;;;;;13.05;100.00;100037.25;5070815;28;20178;-75
2022/10/25 04:13:38;;;;;;;0.60;0.60;;;;;;;13.05;100.00;100041.94;5070638;28;20516;-75
2022/10/25 04:16:05;;;;;;;12.93;1.93;;;;;;;13.08;100.00;100033.84;5070286;28;20534;-74
2022/10/25 04:18:31;;;;;;;2.57;1.10;;;;;;;13.06;100.00;100038.06;5070435;28;20689;-75
2022/10/25 04:20:57;;;;;;;2.90;0.80;;;;;;;13.04;100.00;100032.91;5052562;28;20284;-76
2022/10/25 04:23:22;;;;;;;2.20;1.57;;;;;;;13.05;100.00;100044.69;5070298;28;20284;-75
2022/10/25 04:25:48;;;;;;;0.60;0.60;;;;;;;13.05;100.00;100040.00;5070504;28;20324;-74
2022/10/25 04:28:14;;;;;;;0.37;0.37;;;;;;;13.07;100.00;100050.63;5070463;28;20210;-76
2022/10/25 04:30:39;;;;;;;9.80;2.67;;;;;;;13.07;100.00;100056.91;5070603;28;20189;-75
2022/10/25 04:33:05;;;;;;;0.63;0.63;;;;;;;13.05;100.00;100052.91;5070493;28;20171;-75
2022/10/25 04:35:30;;;;;;;7.80;0.90;;;;;;;13.05;100.00;100058.41;5070530;28;20178;-75
2022/10/25 04:37:57;;;;;;;0.17;0.17;;;;;;;13.04;100.00;100063.09;5070630;28;20186;-75
2022/10/25 04:40:22;;;;;;;0.53;0.53;;;;;;;13.02;100.00;100056.34;5070319;28;20684;-75
2022/10/25 04:42:47;;;;;;;1.20;1.07;;;;;;;12.98;100.00;100056.19;5070010;28;20179;-75
2022/10/25 04:45:12;;;;;;;2.80;0.43;;;;;;;12.95;100.00;100067.03;5070083;28;20206;-75
2022/10/25 04:47:38;;;;;;;0.27;0.27;;;;;;;12.92;100.00;100056.75;5070121;28;20187;-75
2022/10/25 04:50:03;;;;;;;1.37;1.37;;;;;;;12.90;100.00;100059.81;5070041;28;20228;-75
2022/10/25 04:52:30;;;;;;;1.50;0.70;;;;;;;12.90;100.00;100067.25;5070163;28;20522;-74
2022/10/25 04:54:55;;;;;;;1.10;1.10;;;;;;;12.84;100.00;100060.34;5070145;28;20179;-74
2022/10/25 04:57:21;;;;;;;0.20;0.20;;;;;;;12.82;100.00;100063.44;5069575;28;20189;-74
2022/10/25 04:59:46;;;;;;;0.00;0.00;;;;;;;12.83;100.00;100062.28;5070039;28;20206;-75
2022/10/25 05:02:11;;;;;;;1.63;1.53;;;;;;;12.77;100.00;100063.66;5070254;28;20175;-75
2022/10/25 05:04:37;;;;;;;0.53;0.13;;;;;;;12.77;100.00;100063.66;5069794;28;20213;-74
2022/10/25 05:07:02;;;;;;;1.27;0.70;;;;;;;12.76;100.00;100064.78;5069493;28;20220;-74
2022/10/25 05:09:27;;;;;;;1.10;1.10;;;;;;;12.75;100.00;100066.72;5069779;28;20536;-74
2022/10/25 05:11:52;;;;;;;7.30;0.70;;;;;;;12.75;100.00;100068.66;5069860;28;20175;-74
2022/10/25 05:14:18;;;;;;;0.30;0.30;;;;;;;12.76;100.00;100070.28;5054774;28;20236;-75
2022/10/25 05:16:43;;;;;;;1.27;0.80;;;;;;;12.76;100.00;100070.28;5073410;28;20257;-75
2022/10/25 05:19:08;;;;;;;10.37;0.77;;;;;;;12.79;100.00;100075.88;5073959;28;20224;-75
2022/10/25 05:21:34;;;;;;;0.60;0.60;;;;;;;12.81;100.00;100079.09;5073481;28;20187;-74
2022/10/25 05:24:00;;;;;;;1.23;1.20;;;;;;;12.84;100.00;100083.09;5073475;28;20212;-74
2022/10/25 05:26:26;;;;;;;8.27;3.00;;;;;;;12.82;100.00;100079.88;5073058;28;20241;-75
2022/10/25 05:28:52;;;;;;;4.17;2.23;;;;;;;12.82;100.00;100085.38;5073342;28;20174;-74
2022/10/25 05:31:21;;;;;;;1.03;1.03;;;;;;;12.84;100.00;100096.00;5073283;28;20630;-75
2022/10/25 05:33:52;;;;;;;0.63;0.63;;;;;;;12.84;100.00;100090.50;5073340;28;20529;-74
2022/10/25 05:36:18;;;;;;;0.70;0.60;;;;;;;12.82;100.00;100088.09;5072885;28;20300;-75
2022/10/25 05:38:44;;;;;;;1.13;1.13;;;;;;;12.83;100.00;100089.72;5054634;28;20189;-74
2022/10/25 05:41:11;;;;;;;26.47;1.03;;;;;;;12.83;100.00;100100.69;5053596;28;20198;-75
2022/10/25 05:43:36;;;;;;;1.60;1.50;;;;;;;12.82;100.00;100096.34;5056973;28;20288;-75
2022/10/25 05:46:16;;;;;;;0.07;0.07;;;;;;;12.82;100.00;100096.34;5072535;28;20185;-74
2022/10/25 05:48:42;;;;;;;1.07;0.63;;;;;;;12.82;100.00;100110.84;5073035;28;20645;-74
2022/10/25 05:51:11;;;;;;;0.50;0.50;;;;;;;12.82;100.00;100112.78;5054921;28;20263;-75
2022/10/25 05:53:41;;;;;;;1.47;1.37;;;;;;;12.82;100.00;100105.34;5073242;28;20182;-75
2022/10/25 05:56:06;;;;;;;0.73;0.73;;;;;;;12.84;100.00;100112.44;5054644;28;20280;-74
2022/10/25 05:58:31;;;;;;;0.80;0.80;;;;;;;12.85;100.00;100120.34;5072774;28;20190;-74
2022/10/25 06:00:58;;;;;;;1.73;1.10;;;;;;;12.86;100.00;100121.94;5072713;28;20181;-75
2022/10/25 06:03:24;;;;;;;0.40;0.40;;;;;;;12.87;100.00;100126.28;5072424;28;20247;-75
2022/10/25 06:05:49;;;;;;;7.63;1.73;;;;;;;12.88;100.00;100130.66;5072146;28;20275;-75
2022/10/25 06:08:15;;;;;;;1.07;1.07;;;;;;;12.85;100.00;100136.78;5054567;28;20171;-75
2022/10/25 06:10:40;;;;;;;0.50;0.50;;;;;;;12.85;100.00;100138.72;5072611;28;20186;-75
2022/10/25 06:13:05;;;;;;;0.60;0.60;;;;;;;12.85;100.00;100142.25;5072340;28;20178;-75
2022/10/25 06:15:31;;;;;;;1.10;1.10;;;;;;;12.85;100.00;100141.47;5072842;28;20174;-74
2022/10/25 06:17:56;;;;;;;0.80;0.80;;;;;;;12.89;100.00;100154.19;5072765;28;20202;-74
2022/10/25 06:20:21;;;;;;;0.77;0.77;;;;;;;12.91;100.00;100157.41;5072303;28;20166;-75
2022/10/25 06:22:46;;;;;;;0.67;0.60;;;;;;;12.92;100.00;100152.72;5072232;28;20186;-75
2022/10/25 06:25:12;;;;;;;12.63;1.83;;;;;;;12.89;100.00;100154.19;5072108;28;20216;-75
2022/10/25 06:27:37;;;;;;;1.47;1.37;;;;;;;12.89;100.00;100156.94;5053720;28;20178;-74
2022/10/25 06:30:03;;;;;;;0.63;0.63;;;;;;;12.89;100.00;100161.63;5072223;28;20282;-74
2022/10/25 06:32:28;;;;;;;5.90;0.70;;;;;;;12.89;100.00;100169.84;5072001;28;20178;-73
2022/10/25 06:34:53;;;;;;;1.13;1.10;;;;;;;12.90;100.00;100166.75;5072191;28;20198;-71
2022/10/25 06:37:19;;;;;;;1.60;1.60;;;;;;;12.93;100.00;100174.31;5071729;28;20174;-72
2022/10/25 06:39:44;;;;;;;1.37;1.10;;;;;;;12.93;100.00;100185.28;5071856;28;20531;-72
2022/10/25 06:42:09;;;;;;;0.20;0.20;;;;;;;12.94;100.00;100177.84;5054012;28;20621;-70
2022/10/25 06:44:34;;;;;;;0.10;0.10;;;;;;;12.98;100.00;100176.06;5071855;28;20754;-76
2022/10/25 06:47:01;;;;;;;3.27;2.27;;;;;;;12.97;100.00;100180.72;5053278;28;20174;-75
2022/10/25 06:49:27;;;;;;;2.90;1.90;;;;;;;12.97;100.00;100186.22;5071354;28;20170;-76
2022/10/25 06:51:52;;;;;;;0.20;0.20;;;;;;;12.98;100.00;100193.31;5071543;28;20175;-68
2022/10/25 06:54:18;;;;;;;0.63;0.63;;;;;;;12.97;100.00;100188.97;5071245;28;20560;-74
2022/10/25 06:56:43;;;;;;;1.27;1.17;;;;;;;12.99;100.00;100199.59;5052939;28;20178;-76
2022/10/25 06:59:08;;;;;;;2.33;0.50;;;;;;;13.02;100.00;100212.66;5071007;28;20185;-73
2022/10/25 07:01:34;;;;;;;7.33;0.57;;;;;;;13.02;100.00;100207.19;5071289;28;20246;-73
2022/10/25 07:04:01;;;;;;;0.40;0.40;;;;;;;13.04;100.00;100218.59;5071143;28;20202;-76
2022/10/25 07:06:34;;;;;;;1.03;1.03;;;;;;;13.04;100.00;100218.59;5070594;28;20202;-77
2022/10/25 07:08:59;;;;;;;7.33;1.10;;;;;;;13.02;100.00;100229.91;5071010;28;20266;-75
2022/10/25 07:11:27;;;;;;;1.10;1.00;;;;;;;13.01;100.00;100225.53;5070577;28;20281;-75
2022/10/25 07:13:54;;;;;;;0.00;0.00;;;;;;;13.05;100.00;100228.44;5070980;28;20614;-75
2022/10/25 07:16:20;;;;;;;0.23;0.23;;;;;;;13.05;100.00;100232.00;5052491;28;20282;-76
2022/10/25 07:18:47;;;;;;;0.30;0.30;;;;;;;13.07;100.00;100232.44;5070867;28;20669;-76
2022/10/25 07:21:19;;;;;;;0.33;0.30;;;;;;;13.06;100.00;100233.59;5070495;28;20210;-75
2022/10/25 07:23:44;;;;;;;2.63;1.00;;;;;;;13.05;100.00;100242.97;5068150;28;20256;-73
2022/10/25 07:26:18;;;;;;;0.10;0.10;;;;;;;13.05;100.00;100240.22;5068910;28;20187;-75
2022/10/25 07:28:49;;;;;;;2.20;2.00;;;;;;;13.04;100.00;100235.88;5071178;28;20163;-75
2022/10/25 07:31:23;;;;;;;0.60;0.60;;;;;;;13.05;100.00;100239.41;5071022;28;20175;-75
2022/10/25 07:33:51;;;;;;;1.10;1.00;;;;;;;13.04;100.00;100241.34;5070855;28;20177;-75
2022/10/25 07:36:17;;;;;;;5.20;1.93;;;;;;;13.04;100.00;100248.78;5070178;28;20191;-75
2022/10/25 07:38:42;;;;;;;0.50;0.50;;;;;;;13.05;100.00;100253.13;5070856;28;20198;-74
2022/10/25 07:41:08;;;;;;;10.50;2.30;;;;;;;13.04;100.00;100252.31;5070866;28;20259;-75
2022/10/25 07:43:34;;;;;;;0.27;0.27;;;;;;;13.02;100.00;100249.13;5070913;28;20201;-72
2022/10/25 07:45:59;;;;;;;4.13;1.93;;;;;;;13.03;100.00;100255.41;5069796;28;20170;-74
2022/10/25 07:48:25;;;;;;;3.57;1.60;;;;;;;13.04;100.00;100248.78;5068384;28;20726;-78
2022/10/25 07:50:51;;;;;;;0.00;0.00;;;;;;;13.08;100.00;100263.44;5070713;28;20174;-81
2022/10/25 07:53:16;;;;;;;11.73;1.70;;;;;;;13.09;100.00;100262.28;5072016;28;20174;-75
2022/10/25 07:55:42;;;;;;;0.97;0.83;;;;;;;13.12;100.00;100261.63;5074103;28;20440;-75
2022/10/25 07:58:09;;;;;;;2.27;2.00;;;;;;;13.13;100.00;100262.41;5077970;28;20207;-74
2022/10/25 08:00:35;;;;;;;0.43;0.40;;;;;;;13.15;100.00;100268.38;5072672;28;20167;-76
2022/10/25 08:03:01;;;;;;;1.27;0.27;;;;;;;13.16;100.00;100283.69;5053755;28;20524;-75
2022/10/25 08:05:26;;;;;;;1.00;0.93;;;;;;;13.20;100.00;100276.47;5070456;28;20208;-74
2022/10/25 08:07:52;;;;;;;3.53;2.23;;;;;;;13.21;100.00;100287.09;5070202;28;20182;-75
2022/10/25 08:10:19;;;;;;;0.20;0.20;;;;;;;13.25;100.00;100281.75;5070491;28;20686;-74
2022/10/25 08:12:45;;;;;;;0.63;0.63;;;;;;;13.30;100.00;100287.81;5070266;28;20177;-74
2022/10/25 08:15:10;;;;;;;7.87;3.27;;;;;;;13.32;100.00;100287.50;5052151;28;20178;-75
2022/10/25 08:17:35;;;;;;;2.53;1.50;;;;;;;13.32;100.00;100284.78;5069865;28;20170;-75
2022/10/25 08:20:01;;;;;;;5.90;2.37;;;;;;;13.32;100.00;100301.25;5070394;28;20601;-74
2022/10/25 08:22:26;;;;;;;0.43;0.43;;;;;;;13.37;100.00;100301.03;5070516;28;20529;-76
2022/10/25 08:24:51;;;;;;;1.57;1.47;;;;;;;13.47;100.00;100299.84;5070209;28;20225;-76
2022/10/25 08:27:17;;;;;;;0.67;0.67;;;;;;;13.59;100.00;100308.91;5069829;28;20197;-75
2022/10/25 08:29:42;;;;;;;0.10;0.10;;;;;;;13.64;100.00;100299.69;5070440;28;20182;-76
2022/10/25 08:32:07;;;;;;;7.17;2.33;;;;;;;13.66;100.00;100290.00;5070074;28;20626;-74
2022/10/25 08:34:33;;;;;;;2.60;1.83;;;;;;;13.67;100.00;100296.28;5070239;28;20243;-75
2022/10/25 08:36:58;;;;;;;7.33;1.23;;;;;;;13.74;100.00;100312.19;5072591;28;20177;-76
2022/10/25 08:39:23;;;;;;;0.57;0.57;;;;;;;13.81;100.00;100317.97;5070490;28;20193;-75
2022/10/25 08:41:49;;;;;;;2.23;1.50;;;;;;;13.94;100.00;100325.13;5069966;28;20183;-75
2022/10/25 08:44:33;;;;;;;1.73;1.63;;;;;;;14.10;100.00;100326.09;5069923;28;20240;-74
2022/10/25 08:47:06;;;;;;;3.80;1.53;;;;;;;14.13;100.00;100325.44;5069700;28;20788;-75
2022/10/25 08:50:10;;;;;;;2.13;1.93;;;;;;;14.23;100.00;100324.22;5073172;28;20166;-76
2022/10/25 08:52:48;;;;;;;0.40;0.23;;;;;;;14.27;100.00;100323.19;5001197;28;20189;-75
2022/10/25 08:55:26;;;;;;;0.67;0.67;;;;;;;14.35;100.00;100329.75;5073592;28;20181;-76
2022/10/25 08:57:53;;;;;;;4.63;1.90;;;;;;;14.32;100.00;100333.19;5073339;28;20183;-76
2022/10/25 09:00:21;;;;;;;1.00;0.77;;;;;;;14.33;100.00;100339.47;5073788;28;20224;-74
2022/10/25 09:03:07;;;;;;;2.10;1.87;;;;;;;14.22;100.00;100339.09;5073651;28;20177;-72
2022/10/25 09:05:38;;;;;;;1.27;1.17;;;;;;;14.21;100.00;100352.03;5055210;28;20223;-72
2022/10/25 09:08:09;;;;;;;1.20;1.10;;;;;;;14.14;99.30;100349.00;5073478;28;20198;-73
2022/10/25 09:10:55;;;;;;;14.47;1.97;;;;;;;14.18;99.53;100358.22;5073380;28;20174;-72
2022/10/25 09:13:29;;;;;;;1.73;1.37;;;;;;;14.14;99.08;100354.50;5073495;28;20263;-73
2022/10/25 09:16:14;;;;;;;6.93;1.57;;;;;;;14.17;99.90;100345.59;5072958;28;20653;-73
2022/10/25 09:18:50;;;;;;;1.00;1.00;;;;;;;14.18;99.36;100346.41;5073160;28;20170;-72
2022/10/25 09:21:43;;;;;;;1.30;1.20;;;;;;;14.15;99.20;100347.88;5073120;28;20163;-73
2022/10/25 09:24:32;;;;;;;0.67;0.67;;;;;;;14.20;98.72;100350.44;5073054;28;20232;-73
2022/10/25 09:27:16;;;;;;;11.27;1.60;;;;;;;14.27;97.54;100358.09;5072711;28;20710;-72
2022/10/25 09:29:49;;;;;;;1.63;1.40;;;;;;;14.28;96.80;100357.75;5073050;28;20526;-72
2022/10/25 09:32:46;;;;;;;1.27;1.23;;;;;;;14.36;97.52;100366.28;5073081;28;20175;-72
2022/10/25 09:35:18;;;;;;;1.33;1.23;;;;;;;14.42;96.72;100356.66;5052779;28;20191;-73
2022/10/25 09:38:21;;;;;;;4.70;1.70;;;;;;;14.52;96.71;100359.03;5072539;28;20201;-73
2022/10/25 09:41:05;;;;;;;3.43;1.57;;;;;;;14.48;95.79;100364.41;4972934;28;20516;-73
2022/10/25 09:43:39;;;;;;;1.80;0.63;;;;;;;14.44;95.49;100373.66;5072689;28;20167;-72
2022/10/25 09:46:15;;;;;;;4.30;1.97;;;;;;;14.35;94.90;100387.47;5068315;28;20182;-73
2022/10/25 09:48:57;;;;;;;4.87;1.97;;;;;;;14.29;94.54;100372.31;5064099;28;20209;-72
2022/10/25 09:51:38;;;;;;;1.17;1.17;;;;;;;14.28;95.10;100387.19;5072226;28;20187;-72
2022/10/25 09:54:15;;;;;;;1.90;1.80;;;;;;;14.24;95.58;100381.56;5072323;28;20646;-73
2022/10/25 09:56:40;;;;;;;2.13;1.97;;;;;;;14.23;95.67;100384.66;5072457;28;20705;-72
2022/10/25 09:59:10;;;;;;;0.90;0.90;;;;;;;14.24;96.90;100381.56;5071314;28;20265;-73
2022/10/25 10:01:37;;;;;;;3.43;3.13;;;;;;;14.29;96.91;100394.28;5072665;28;20634;-72
2022/10/25 10:04:23;;;;;;;1.90;1.80;;;;;;;14.31;96.86;100389.25;5071072;28;20202;-73
2022/10/25 10:06:52;;;;;;;2.57;2.37;;;;;;;14.38;96.92;100394.22;5071879;28;20262;-72
2022/10/25 10:09:17;;;;;;;2.97;2.53;;;;;;;14.42;96.32;100397.91;5072190;28;20265;-73
2022/10/25 10:11:46;;;;;;;4.13;3.50;;;;;;;14.45;96.49;100405.50;5070896;28;20265;-73
2022/10/25 10:14:21;;;;;;;1.53;1.43;;;;;;;14.47;96.12;100405.97;5072147;28;20167;-72
2022/10/25 10:16:50;;;;;;;1.33;0.90;;;;;;;14.51;96.32;100401.41;5071742;28;20271;-73
2022/10/25 10:19:18;;;;;;;1.17;1.17;;;;;;;14.49;95.68;100403.69;5072077;28;20224;-73
2022/10/25 10:21:50;;;;;;;0.50;0.50;;;;;;;14.52;96.14;100398.31;5073130;28;20170;-72
2022/10/25 10:24:20;;;;;;;7.50;1.17;;;;;;;14.51;95.86;100393.16;5072049;28;20202;-73
2022/10/25 10:26:50;;;;;;;1.03;0.87;;;;;;;14.50;96.46;100400.59;5071655;28;20626;-73
2022/10/25 10:29:21;;;;;;;7.43;1.90;;;;;;;14.50;97.09;100399.81;5071806;28;20167;-73
2022/10/25 10:31:59;;;;;;;0.10;0.10;;;;;;;14.61;97.03;100405.66;5071831;28;20638;-72
2022/10/25 10:34:49;;;;;;;0.67;0.67;;;;;;;14.59;95.71;100406.00;5071750;28;20673;-72
2022/10/25 10:37:19;;;;;;;5.20;2.13;;;;;;;14.58;94.77;100407.16;5071823;28;20652;-72
2022/10/25 10:39:55;;;;;;;17.00;2.20;;;;;;;14.55;92.36;100416.88;5071907;28;20171;-72
2022/10/25 10:42:22;;;;;;;6.20;1.73;;;;;;;14.55;91.21;100407.84;5070339;28;20254;-73
2022/10/25 10:45:11;;;;;;;1.30;1.30;;;;;;;14.62;91.87;100405.34;5070100;28;20544;-73
2022/10/25 10:47:48;;;;;;;4.13;1.83;;;;;;;14.66;92.09;100413.72;5066808;28;20193;-72
2022/10/25 10:50:19;;;;;;;1.77;1.67;;;;;;;14.72;93.09;100413.16;5064329;28;20177;-72
2022/10/25 10:52:46;;;;;;;1.33;1.23;;;;;;;14.81;93.54;100411.13;5070846;28;20286;-73
2022/10/25 10:55:20;;;;;;;2.00;1.60;;;;;;;14.86;93.25;100402.63;5054130;28;20189;-72
2022/10/25 10:57:46;;;;;;;0.33;0.33;;;;;;;14.93;92.45;100413.09;5071443;28;20216;-73
2022/10/25 11:00:22;;;;;;;2.00;1.73;;;;;;;14.95;90.77;100416.31;5071672;28;20166;-73
2022/10/25 11:02:48;;;;;;;1.47;1.40;;;;;;;14.97;90.00;100416.75;5071391;28;20171;-72
2022/10/25 11:05:28;;;;;;;0.90;0.90;;;;;;;15.05;90.05;100426.06;5053428;28;20260;-70
2022/10/25 11:07:58;;;;;;;1.70;1.60;;;;;;;15.18;89.70;100431.22;5071235;28;20209;-71
2022/10/25 11:10:29;;;;;;;2.40;1.77;;;;;;;15.10;88.38;100418.38;5070631;28;20224;-70
2022/10/25 11:13:06;;;;;;;1.97;1.60;;;;;;;15.10;88.96;100425.84;5071576;28;20478;-70
2022/10/25 11:16:01;;;;;;;3.83;1.23;;;;;;;15.10;89.75;100429.38;5053443;28;20174;-71
2022/10/25 11:19:02;;;;;;;12.93;1.53;;;;;;;15.03;89.64;100425.59;5071390;28;20182;-71
2022/10/25 11:21:36;;;;;;;7.63;1.23;;;;;;;15.03;90.69;100431.88;5013159;28;20186;-70
2022/10/25 11:24:20;;;;;;;1.70;1.60;;;;;;;15.03;90.87;100423.63;5071167;28;20289;-71
2022/10/25 11:27:07;;;;;;;1.70;1.60;;;;;;;15.00;90.54;100421.56;5070902;28;20246;-70
2022/10/25 11:29:54;;;;;;;0.50;0.50;;;;;;;15.09;92.05;100433.28;5053044;28;20205;-71
2022/10/25 11:32:54;;;;;;;4.60;2.50;;;;;;;15.10;90.42;100429.38;5071466;28;20437;-71